createdAt,value
2018-06-09T00:00:23.106Z,20.50
2018-06-09T00:01:23.268Z,20.10
2018-06-09T00:02:23.439Z,20.10
2018-06-09T00:03:23.533Z,20.60
2018-06-09T00:04:23.562Z,20.50
2018-06-09T00:05:23.652Z,20.40
2018-06-09T00:06:23.761Z,19.30
2018-06-09T00:07:23.924Z,19.50
2018-06-09T00:08:24.221Z,19.90
2018-06-09T00:09:24.058Z,19.40
2018-06-09T00:10:24.160Z,19.80
2018-06-09T00:11:24.266Z,19.40
2018-06-09T00:12:24.367Z,20.20
2018-06-09T00:13:24.475Z,19.80
2018-06-09T00:14:24.703Z,19.30
2018-06-09T00:15:24.816Z,20.30
2018-06-09T00:16:24.779Z,19.70
2018-06-09T00:17:24.921Z,20.10
2018-06-09T00:18:25.145Z,19.70
2018-06-09T00:19:25.128Z,19.10
2018-06-09T00:20:25.256Z,20.60
2018-06-09T00:21:25.500Z,20.60
2018-06-09T00:22:25.364Z,20.70
2018-06-09T00:23:25.558Z,19.10
2018-06-09T00:24:25.524Z,18.70
2018-06-09T00:25:25.659Z,19.80
2018-06-09T00:26:25.749Z,19.70
2018-06-09T00:27:25.836Z,19.30
2018-06-09T00:28:25.910Z,18.90
2018-06-09T00:29:26.058Z,19.00
2018-06-09T00:30:26.160Z,19.50
2018-06-09T00:31:26.370Z,19.60
2018-06-09T00:32:26.366Z,21.50
2018-06-09T00:33:26.564Z,19.10
2018-06-09T00:34:26.579Z,19.50
2018-06-09T00:35:26.683Z,19.70
2018-06-09T00:36:26.893Z,19.90
2018-06-09T00:37:26.967Z,20.10
2018-06-09T00:38:27.122Z,19.50
2018-06-09T00:39:27.200Z,19.80
2018-06-09T00:40:27.365Z,20.00
2018-06-09T00:41:27.366Z,19.10
2018-06-09T00:42:27.464Z,19.10
2018-06-09T00:43:27.575Z,19.90
2018-06-09T00:44:27.673Z,19.60
2018-06-09T00:45:27.768Z,20.20
2018-06-09T00:46:27.872Z,19.40
2018-06-09T00:47:27.992Z,19.50
2018-06-09T00:48:28.097Z,19.00
2018-06-09T00:49:28.197Z,19.20
2018-06-09T00:50:28.323Z,19.60
2018-06-09T00:51:28.424Z,19.50
2018-06-09T00:52:28.533Z,20.30
2018-06-09T00:53:28.644Z,20.20
2018-06-09T00:54:28.744Z,20.10
2018-06-09T00:55:28.835Z,20.50
2018-06-09T00:56:28.935Z,20.60
2018-06-09T00:57:29.037Z,20.20
2018-06-09T00:58:29.130Z,19.20
2018-06-09T00:59:29.228Z,18.70
2018-06-09T01:00:29.330Z,19.70
2018-06-09T01:01:29.428Z,19.70
2018-06-09T01:02:29.529Z,19.20
2018-06-09T01:03:29.644Z,19.00
2018-06-09T01:04:29.740Z,19.30
2018-06-09T01:05:29.844Z,18.70
2018-06-09T01:06:29.950Z,19.40
2018-06-09T01:07:30.065Z,19.40
2018-06-09T01:08:30.163Z,19.30
2018-06-09T01:09:30.281Z,19.10
2018-06-09T01:10:30.371Z,19.10
2018-06-09T01:11:30.467Z,19.30
2018-06-09T01:12:30.569Z,20.00
2018-06-09T01:13:30.672Z,19.80
2018-06-09T01:14:30.772Z,19.20
2018-06-09T01:15:30.872Z,20.20
2018-06-09T01:16:30.968Z,20.10
2018-06-09T01:17:31.063Z,20.40
2018-06-09T01:18:31.168Z,19.70
2018-06-09T01:19:31.273Z,19.50
2018-06-09T01:20:31.365Z,19.40
2018-06-09T01:21:31.466Z,19.20
2018-06-09T01:22:31.564Z,18.90
2018-06-09T01:23:31.668Z,20.50
2018-06-09T01:24:31.768Z,19.70
2018-06-09T01:25:31.866Z,18.80
2018-06-09T01:26:31.967Z,19.80
2018-06-09T01:27:32.063Z,19.70
2018-06-09T01:28:32.170Z,19.80
2018-06-09T01:29:32.271Z,19.80
2018-06-09T01:30:32.370Z,19.40
2018-06-09T01:31:32.473Z,19.40
2018-06-09T01:32:32.576Z,19.80
2018-06-09T01:33:32.676Z,19.40
2018-06-09T01:34:32.779Z,21.40
2018-06-09T01:35:32.878Z,19.40
2018-06-09T01:36:32.981Z,20.50
2018-06-09T01:37:33.079Z,20.80
2018-06-09T01:38:33.180Z,19.90
2018-06-09T01:39:33.282Z,20.80
2018-06-09T01:40:33.385Z,20.10
2018-06-09T01:41:33.488Z,20.80
2018-06-09T01:42:33.588Z,21.00
2018-06-09T01:43:33.688Z,21.20
2018-06-09T01:44:33.788Z,20.90
2018-06-09T01:45:33.891Z,21.30
2018-06-09T01:46:33.993Z,20.20
2018-06-09T01:47:34.091Z,20.90
2018-06-09T01:48:34.193Z,21.80
2018-06-09T01:49:34.293Z,21.40
2018-06-09T01:50:34.394Z,20.90
2018-06-09T01:51:34.493Z,20.70
2018-06-09T01:52:34.594Z,20.80
2018-06-09T01:53:34.695Z,20.80
2018-06-09T01:54:34.793Z,20.90
2018-06-09T01:55:34.894Z,20.90
2018-06-09T01:56:35.002Z,21.00
2018-06-09T01:57:35.108Z,20.90
2018-06-09T01:58:35.209Z,21.00
2018-06-09T01:59:35.309Z,21.20
2018-06-09T02:00:35.410Z,21.90
2018-06-09T02:01:35.509Z,20.70
2018-06-09T02:02:35.613Z,21.00
2018-06-09T02:03:35.714Z,21.50
2018-06-09T02:04:35.822Z,20.70
2018-06-09T02:05:35.922Z,21.80
2018-06-09T02:06:36.027Z,20.40
2018-06-09T02:07:36.124Z,20.30
2018-06-09T02:08:36.227Z,20.80
2018-06-09T02:09:36.329Z,20.50
2018-06-09T02:10:36.427Z,21.30
2018-06-09T02:11:36.533Z,20.50
2018-06-09T02:12:36.665Z,21.00
2018-06-09T02:13:36.732Z,21.50
2018-06-09T02:14:36.832Z,21.30
2018-06-09T02:15:36.934Z,21.80
2018-06-09T02:16:37.034Z,20.40
2018-06-09T02:17:37.136Z,21.40
2018-06-09T02:18:37.243Z,21.00
2018-06-09T02:19:37.345Z,21.50
2018-06-09T02:20:37.445Z,21.20
2018-06-09T02:21:37.546Z,20.60
2018-06-09T02:22:37.645Z,20.20
2018-06-09T02:23:37.746Z,20.80
2018-06-09T02:24:37.845Z,22.40
2018-06-09T02:25:37.950Z,21.10
2018-06-09T02:26:38.055Z,20.80
2018-06-09T02:27:38.154Z,21.30
2018-06-09T02:28:38.254Z,22.10
2018-06-09T02:29:38.355Z,20.80
2018-06-09T02:30:38.458Z,20.80
2018-06-09T02:31:38.558Z,21.00
2018-06-09T02:32:38.668Z,20.90
2018-06-09T02:33:38.776Z,23.20
2018-06-09T02:34:38.867Z,22.30
2018-06-09T02:35:38.968Z,21.30
2018-06-09T02:36:39.068Z,21.40
2018-06-09T02:37:39.168Z,21.10
2018-06-09T02:38:39.268Z,22.40
2018-06-09T02:39:39.382Z,21.70
2018-06-09T02:40:39.480Z,21.60
2018-06-09T02:41:39.583Z,21.40
2018-06-09T02:42:39.682Z,21.50
2018-06-09T02:43:39.784Z,21.00
2018-06-09T02:44:39.885Z,21.80
2018-06-09T02:45:39.986Z,20.60
2018-06-09T02:46:40.106Z,20.70
2018-06-09T02:47:40.193Z,20.00
2018-06-09T02:48:40.294Z,21.30
2018-06-09T02:49:40.391Z,20.50
2018-06-09T02:50:40.489Z,20.40
2018-06-09T02:51:40.593Z,21.00
2018-06-09T02:52:40.695Z,19.70
2018-06-09T02:53:40.807Z,19.80
2018-06-09T02:54:40.907Z,20.20
2018-06-09T02:55:41.006Z,20.10
2018-06-09T02:56:41.107Z,19.80
2018-06-09T02:57:41.206Z,19.50
2018-06-09T02:58:41.306Z,21.00
2018-06-09T02:59:41.408Z,20.50
2018-06-09T03:00:41.521Z,20.50
2018-06-09T03:01:41.607Z,20.40
2018-06-09T03:02:41.692Z,20.80
2018-06-09T03:03:41.852Z,20.90
2018-06-09T03:04:41.911Z,20.40
2018-06-09T03:05:42.016Z,20.70
2018-06-09T03:06:42.155Z,21.00
2018-06-09T03:07:42.364Z,20.40
2018-06-09T03:08:42.387Z,21.30
2018-06-09T03:09:42.452Z,20.40
2018-06-09T03:10:42.657Z,20.90
2018-06-09T03:11:42.677Z,20.70
2018-06-09T03:12:43.034Z,20.10
2018-06-09T03:13:42.855Z,21.70
2018-06-09T03:14:43.197Z,21.00
2018-06-09T03:15:43.218Z,21.10
2018-06-09T03:16:43.195Z,22.40
2018-06-09T03:17:43.400Z,22.30
2018-06-09T03:18:43.658Z,21.00
2018-06-09T03:19:43.445Z,21.90
2018-06-09T03:20:43.708Z,23.80
2018-06-09T03:21:43.787Z,23.90
2018-06-09T03:22:44.041Z,22.80
2018-06-09T03:23:43.861Z,23.40
2018-06-09T03:24:44.085Z,23.20
2018-06-09T03:25:44.147Z,22.10
2018-06-09T03:26:44.302Z,22.00
2018-06-09T03:27:44.476Z,22.70
2018-06-09T03:28:44.436Z,21.70
2018-06-09T03:29:44.796Z,21.90
2018-06-09T03:30:44.995Z,21.50
2018-06-09T03:31:44.851Z,21.40
2018-06-09T03:32:44.940Z,20.50
2018-06-09T03:33:45.091Z,21.10
2018-06-09T03:34:45.226Z,21.20
2018-06-09T03:35:45.206Z,21.00
2018-06-09T03:36:45.355Z,21.90
2018-06-09T03:37:45.507Z,21.30
2018-06-09T03:38:45.609Z,21.60
2018-06-09T03:39:46.612Z,21.30
2018-06-09T03:40:45.812Z,20.90
2018-06-09T03:41:46.360Z,21.80
2018-06-09T03:42:46.049Z,21.00
2018-06-09T03:43:46.193Z,22.30
2018-06-09T03:44:46.564Z,21.50
2018-06-09T03:45:46.418Z,20.50
2018-06-09T03:46:47.272Z,21.00
2018-06-09T03:47:46.691Z,20.30
2018-06-09T03:48:46.937Z,21.80
2018-06-09T03:49:46.705Z,20.50
2018-06-09T03:50:47.380Z,20.90
2018-06-09T03:51:46.950Z,19.70
2018-06-09T03:52:47.777Z,21.20
2018-06-09T03:53:47.529Z,20.80
2018-06-09T03:54:47.456Z,20.80
2018-06-09T03:55:47.456Z,21.40
2018-06-09T03:56:47.608Z,23.20
2018-06-09T03:57:47.751Z,22.70
2018-06-09T03:58:47.855Z,22.40
2018-06-09T03:59:48.001Z,23.40
2018-06-09T04:00:48.279Z,22.70
2018-06-09T04:01:48.260Z,23.30
2018-06-09T04:02:48.424Z,22.60
2018-06-09T04:03:48.395Z,21.50
2018-06-09T04:04:48.621Z,22.90
2018-06-09T04:05:48.647Z,21.10
2018-06-09T04:06:48.771Z,26.50
2018-06-09T04:07:48.781Z,22.20
2018-06-09T04:08:48.879Z,21.90
2018-06-09T04:09:49.066Z,22.20
2018-06-09T04:10:49.250Z,22.90
2018-06-09T04:11:49.297Z,22.40
2018-06-09T04:12:49.440Z,21.80
2018-06-09T04:13:49.532Z,23.20
2018-06-09T04:14:49.709Z,21.90
2018-06-09T04:15:49.809Z,23.60
2018-06-09T04:16:49.878Z,23.30
2018-06-09T04:17:49.855Z,23.20
2018-06-09T04:18:50.020Z,23.50
2018-06-09T04:19:50.381Z,22.40
2018-06-09T04:20:50.142Z,22.60
2018-06-09T04:21:50.390Z,22.60
2018-06-09T04:22:50.394Z,22.70
2018-06-09T04:23:50.447Z,22.90
2018-06-09T04:24:50.551Z,22.50
2018-06-09T04:25:50.723Z,22.60
2018-06-09T04:26:50.771Z,23.60
2018-06-09T04:27:50.896Z,23.30
2018-06-09T04:28:51.009Z,22.80
2018-06-09T04:29:51.199Z,23.10
2018-06-09T04:30:51.168Z,22.90
2018-06-09T04:31:51.335Z,22.50
2018-06-09T04:32:51.438Z,23.10
2018-06-09T04:33:51.777Z,22.60
2018-06-09T04:34:51.718Z,22.70
2018-06-09T04:35:51.686Z,23.10
2018-06-09T04:36:51.820Z,23.10
2018-06-09T04:37:52.041Z,23.10
2018-06-09T04:38:52.095Z,22.90
2018-06-09T04:39:52.188Z,22.30
2018-06-09T04:40:52.241Z,21.30
2018-06-09T04:41:52.338Z,22.00
2018-06-09T04:42:52.514Z,21.00
2018-06-09T04:43:52.481Z,22.50
2018-06-09T04:44:52.896Z,21.40
2018-06-09T04:45:52.625Z,21.70
2018-06-09T04:46:52.805Z,21.70
2018-06-09T04:47:52.902Z,22.00
2018-06-09T04:48:52.928Z,21.90
2018-06-09T04:49:53.050Z,22.20
2018-06-09T04:50:53.151Z,23.30
2018-06-09T04:51:53.358Z,23.80
2018-06-09T04:52:53.412Z,23.20
2018-06-09T04:53:53.627Z,22.60
2018-06-09T04:54:53.631Z,23.10
2018-06-09T04:55:53.632Z,23.40
2018-06-09T04:56:53.767Z,22.40
2018-06-09T04:57:53.905Z,23.60
2018-06-09T04:58:53.907Z,22.30
2018-06-09T04:59:54.088Z,22.40
2018-06-09T05:00:54.285Z,22.90
2018-06-09T05:01:54.711Z,23.20
2018-06-09T05:02:54.449Z,22.60
2018-06-09T05:03:54.766Z,22.10
2018-06-09T05:04:54.662Z,23.10
2018-06-09T05:05:54.679Z,22.60
2018-06-09T05:06:54.883Z,23.00
2018-06-09T05:07:54.870Z,22.80
2018-06-09T05:08:54.988Z,22.90
2018-06-09T05:09:55.094Z,22.80
2018-06-09T05:10:55.228Z,23.00
2018-06-09T05:11:55.390Z,21.90
2018-06-09T05:12:55.807Z,22.20
2018-06-09T05:13:55.647Z,22.20
2018-06-09T05:14:55.756Z,22.80
2018-06-09T05:15:56.148Z,22.50
2018-06-09T05:16:56.142Z,23.40
2018-06-09T05:17:56.189Z,22.60
2018-06-09T05:18:56.163Z,22.20
2018-06-09T05:19:56.296Z,23.00
2018-06-09T05:20:56.718Z,22.50
2018-06-09T05:21:56.479Z,23.90
2018-06-09T05:22:56.584Z,23.10
2018-06-09T05:23:56.706Z,23.10
2018-06-09T05:24:56.813Z,22.30
2018-06-09T05:25:56.950Z,23.10
2018-06-09T05:26:57.433Z,22.80
2018-06-09T05:27:57.273Z,21.80
2018-06-09T05:28:57.280Z,22.30
2018-06-09T05:29:57.516Z,21.80
2018-06-09T05:30:57.418Z,21.70
2018-06-09T05:31:57.643Z,22.30
2018-06-09T05:32:57.619Z,20.80
2018-06-09T05:33:57.717Z,21.30
2018-06-09T05:34:57.784Z,19.60
2018-06-09T05:35:57.843Z,19.50
2018-06-09T05:36:57.924Z,20.40
2018-06-09T05:37:58.054Z,21.10
2018-06-09T05:38:58.167Z,20.40
2018-06-09T05:39:58.421Z,19.90
2018-06-09T05:40:58.488Z,19.20
2018-06-09T05:41:58.459Z,20.20
2018-06-09T05:42:58.589Z,19.40
2018-06-09T05:43:58.700Z,20.10
2018-06-09T05:44:58.804Z,19.60
2018-06-09T05:45:58.896Z,19.70
2018-06-09T05:46:58.996Z,20.10
2018-06-09T05:47:59.097Z,21.10
2018-06-09T05:48:59.222Z,19.90
2018-06-09T05:49:59.318Z,19.40
2018-06-09T05:50:59.419Z,19.60
2018-06-09T05:51:59.529Z,19.50
2018-06-09T05:52:59.626Z,20.10
2018-06-09T05:53:59.743Z,19.50
2018-06-09T05:54:59.843Z,18.30
2018-06-09T05:55:59.933Z,18.60
2018-06-09T05:57:00.035Z,19.20
2018-06-09T05:58:00.138Z,18.90
2018-06-09T05:59:00.263Z,18.50
2018-06-09T06:00:00.390Z,18.70
2018-06-09T06:01:00.501Z,19.50
2018-06-09T06:02:00.598Z,18.30
2018-06-09T06:03:00.759Z,18.30
2018-06-09T06:04:00.831Z,18.70
2018-06-09T06:05:00.907Z,18.50
2018-06-09T06:06:01.021Z,18.10
2018-06-09T06:07:01.126Z,17.90
2018-06-09T06:08:01.228Z,17.60
2018-06-09T06:09:01.339Z,16.90
2018-06-09T06:10:01.438Z,17.30
2018-06-09T06:11:01.546Z,16.90
2018-06-09T06:12:01.648Z,16.40
2018-06-09T06:13:01.757Z,15.80
2018-06-09T06:14:01.861Z,16.40
2018-06-09T06:15:01.965Z,15.80
2018-06-09T06:16:02.084Z,15.40
2018-06-09T06:17:02.196Z,15.10
2018-06-09T06:18:02.335Z,14.70
2018-06-09T06:19:02.407Z,15.20
2018-06-09T06:20:02.517Z,15.40
2018-06-09T06:21:02.619Z,15.10
2018-06-09T06:22:02.726Z,15.90
2018-06-09T06:23:02.833Z,16.40
2018-06-09T06:24:02.940Z,14.70
2018-06-09T06:25:03.049Z,14.70
2018-06-09T06:26:03.162Z,15.30
2018-06-09T06:27:03.263Z,14.70
2018-06-09T06:28:03.371Z,15.50
2018-06-09T06:29:03.477Z,14.90
2018-06-09T06:30:03.583Z,15.30
2018-06-09T06:31:03.687Z,15.10
2018-06-09T06:32:03.792Z,15.00
2018-06-09T06:33:03.893Z,14.70
2018-06-09T06:34:04.000Z,14.60
2018-06-09T06:35:04.107Z,15.00
2018-06-09T06:36:04.215Z,14.90
2018-06-09T06:37:04.319Z,14.30
2018-06-09T06:38:04.424Z,15.20
2018-06-09T06:39:04.533Z,14.30
2018-06-09T06:40:04.639Z,15.20
2018-06-09T06:41:04.744Z,15.00
2018-06-09T06:42:04.853Z,16.10
2018-06-09T06:43:04.957Z,14.70
2018-06-09T06:44:05.065Z,15.30
2018-06-09T06:45:05.204Z,14.90
2018-06-09T06:46:05.278Z,16.20
2018-06-09T06:47:05.391Z,16.40
2018-06-09T06:48:05.500Z,16.20
2018-06-09T06:49:05.605Z,15.80
2018-06-09T06:50:05.712Z,16.60
2018-06-09T06:51:05.822Z,16.40
2018-06-09T06:52:05.926Z,16.00
2018-06-09T06:53:06.031Z,16.50
2018-06-09T06:54:06.148Z,17.70
2018-06-09T06:55:06.236Z,17.40
2018-06-09T06:56:06.340Z,16.70
2018-06-09T06:57:06.447Z,15.80
2018-06-09T06:58:06.555Z,17.90
2018-06-09T06:59:06.660Z,17.30
2018-06-09T07:00:06.767Z,17.80
2018-06-09T07:01:06.873Z,18.00
2018-06-09T07:02:07.027Z,18.10
2018-06-09T07:03:07.087Z,18.80
2018-06-09T07:04:07.194Z,17.80
2018-06-09T07:05:07.296Z,17.60
2018-06-09T07:06:07.404Z,18.10
2018-06-09T07:07:07.510Z,17.60
2018-06-09T07:08:07.618Z,17.50
2018-06-09T07:09:07.728Z,16.80
2018-06-09T07:10:07.833Z,16.80
2018-06-09T07:11:07.942Z,16.50
2018-06-09T07:12:08.046Z,17.00
2018-06-09T07:13:08.153Z,16.40
2018-06-09T07:14:08.258Z,16.70
2018-06-09T07:15:08.363Z,16.40
2018-06-09T07:16:08.470Z,15.70
2018-06-09T07:17:08.573Z,15.60
2018-06-09T07:18:08.675Z,15.50
2018-06-09T07:19:08.781Z,14.20
2018-06-09T07:20:08.886Z,14.40
2018-06-09T07:21:08.994Z,15.30
2018-06-09T07:22:09.149Z,12.70
2018-06-09T07:23:09.207Z,10.40
2018-06-09T07:24:09.314Z,11.60
2018-06-09T07:25:09.420Z,10.80
2018-06-09T07:26:09.527Z,10.70
2018-06-09T07:27:09.635Z,10.50
2018-06-09T07:28:09.746Z,9.90
2018-06-09T07:29:09.848Z,10.00
2018-06-09T07:30:09.957Z,10.40
2018-06-09T07:31:10.071Z,9.60
2018-06-09T07:32:10.175Z,9.10
2018-06-09T07:33:10.282Z,10.40
2018-06-09T07:34:10.390Z,9.20
2018-06-09T07:35:10.552Z,9.40
2018-06-09T07:36:10.612Z,9.00
2018-06-09T07:37:10.713Z,10.10
2018-06-09T07:38:10.820Z,9.60
2018-06-09T07:39:10.924Z,9.30
2018-06-09T07:40:11.033Z,9.40
2018-06-09T07:41:11.138Z,8.90
2018-06-09T07:42:11.246Z,8.70
2018-06-09T07:43:11.356Z,9.20
2018-06-09T07:44:11.461Z,9.40
2018-06-09T07:45:11.568Z,10.10
2018-06-09T07:46:11.682Z,9.30
2018-06-09T07:47:12.363Z,9.40
2018-06-09T07:48:12.672Z,9.80
2018-06-09T07:49:12.011Z,9.00
2018-06-09T07:50:12.274Z,9.10
2018-06-09T07:51:12.746Z,9.30
2018-06-09T07:52:12.438Z,10.30
2018-06-09T07:53:12.475Z,11.10
2018-06-09T07:54:12.918Z,13.00
2018-06-09T07:55:13.892Z,9.40
2018-06-09T07:56:12.871Z,10.20
2018-06-09T07:57:13.060Z,10.30
2018-06-09T07:58:13.661Z,9.70
2018-06-09T07:59:13.632Z,9.70
2018-06-09T08:00:13.575Z,9.00
2018-06-09T08:01:13.316Z,11.80
2018-06-09T08:02:13.430Z,8.80
2018-06-09T08:03:13.895Z,8.30
2018-06-09T08:04:13.790Z,8.80
2018-06-09T08:05:14.420Z,9.20
2018-06-09T08:06:13.960Z,8.60
2018-06-09T08:07:13.915Z,8.70
2018-06-09T08:08:14.078Z,8.10
2018-06-09T08:09:14.438Z,8.80
2018-06-09T08:10:14.280Z,11.80
2018-06-09T08:11:14.616Z,8.30
2018-06-09T08:12:14.510Z,9.20
2018-06-09T08:13:14.528Z,9.70
2018-06-09T08:14:15.060Z,9.00
2018-06-09T08:15:14.844Z,8.60
2018-06-09T08:16:14.922Z,8.90
2018-06-09T08:17:14.946Z,8.70
2018-06-09T08:18:15.433Z,10.30
2018-06-09T08:19:15.216Z,9.30
2018-06-09T08:20:15.181Z,8.70
2018-06-09T08:21:15.291Z,8.60
2018-06-09T08:22:15.449Z,8.50
2018-06-09T08:23:15.633Z,8.20
2018-06-09T08:24:15.615Z,9.00
2018-06-09T08:25:15.779Z,9.50
2018-06-09T08:26:16.011Z,8.90
2018-06-09T08:27:16.049Z,8.10
2018-06-09T08:28:16.286Z,8.30
2018-06-09T08:29:16.417Z,7.60
2018-06-09T08:30:16.366Z,9.00
2018-06-09T08:31:16.688Z,8.30
2018-06-09T08:32:17.253Z,8.70
2018-06-09T08:33:16.729Z,10.10
2018-06-09T08:34:16.857Z,8.10
2018-06-09T08:35:16.896Z,8.20
2018-06-09T08:36:16.895Z,7.90
2018-06-09T08:37:16.880Z,8.10
2018-06-09T08:38:17.136Z,7.90
2018-06-09T08:39:17.147Z,8.20
2018-06-09T08:40:17.443Z,8.20
2018-06-09T08:41:17.377Z,8.10
2018-06-09T08:42:17.675Z,8.60
2018-06-09T08:43:17.684Z,8.50
2018-06-09T08:44:17.787Z,9.10
2018-06-09T08:45:18.041Z,8.40
2018-06-09T08:46:18.028Z,7.80
2018-06-09T08:47:18.672Z,8.40
2018-06-09T08:48:18.294Z,8.20
2018-06-09T08:49:18.431Z,7.50
2018-06-09T08:50:18.550Z,8.80
2018-06-09T08:51:18.556Z,7.90
2018-06-09T08:52:18.803Z,9.00
2018-06-09T08:53:19.337Z,8.20
2018-06-09T08:54:19.067Z,8.80
2018-06-09T08:55:19.045Z,8.30
2018-06-09T08:56:19.037Z,8.20
2018-06-09T08:57:19.211Z,8.10
2018-06-09T08:58:19.264Z,8.70
2018-06-09T08:59:19.235Z,8.50
2018-06-09T09:00:19.591Z,8.30
2018-06-09T09:01:19.531Z,7.90
2018-06-09T09:02:19.630Z,8.50
2018-06-09T09:03:19.758Z,9.00
2018-06-09T09:04:19.918Z,8.40
2018-06-09T09:05:19.945Z,8.00
2018-06-09T09:06:20.139Z,8.30
2018-06-09T09:07:20.199Z,8.10
2018-06-09T09:08:20.185Z,8.50
2018-06-09T09:09:20.397Z,8.60
2018-06-09T09:10:20.397Z,8.00
2018-06-09T09:11:20.561Z,7.80
2018-06-09T09:12:20.710Z,8.90
2018-06-09T09:13:20.849Z,10.00
2018-06-09T09:14:20.915Z,8.30
2018-06-09T09:15:21.033Z,7.70
2018-06-09T09:16:21.472Z,8.60
2018-06-09T09:17:21.395Z,7.70
2018-06-09T09:18:21.436Z,8.30
2018-06-09T09:19:21.549Z,8.80
2018-06-09T09:20:21.605Z,9.60
2018-06-09T09:21:21.975Z,8.40
2018-06-09T09:22:21.888Z,9.70
2018-06-09T09:23:22.028Z,9.20
2018-06-09T09:24:22.150Z,8.70
2018-06-09T09:25:22.357Z,9.40
2018-06-09T09:26:22.405Z,8.70
2018-06-09T09:27:22.590Z,9.00
2018-06-09T09:28:22.598Z,8.70
2018-06-09T09:29:22.702Z,9.00
2018-06-09T09:30:22.758Z,8.50
2018-06-09T09:31:22.996Z,14.70
2018-06-09T09:32:22.919Z,8.40
2018-06-09T09:33:23.032Z,8.10
2018-06-09T09:34:23.126Z,8.60
2018-06-09T09:35:23.371Z,8.00
2018-06-09T09:36:23.524Z,10.00
2018-06-09T09:37:23.620Z,8.50
2018-06-09T09:38:23.651Z,9.20
2018-06-09T09:39:23.776Z,8.20
2018-06-09T09:40:23.883Z,9.60
2018-06-09T09:41:24.068Z,8.70
2018-06-09T09:42:24.106Z,9.60
2018-06-09T09:43:24.218Z,13.20
2018-06-09T09:44:24.367Z,9.30
2018-06-09T09:45:24.638Z,10.80
2018-06-09T09:46:24.688Z,8.70
2018-06-09T09:47:24.756Z,9.10
2018-06-09T09:48:24.867Z,8.90
2018-06-09T09:49:24.974Z,10.00
2018-06-09T09:50:25.159Z,10.00
2018-06-09T09:51:25.231Z,8.90
2018-06-09T09:52:25.297Z,9.40
2018-06-09T09:53:25.327Z,9.20
2018-06-09T09:54:25.438Z,9.20
2018-06-09T09:55:25.535Z,10.30
2018-06-09T09:56:25.647Z,8.60
2018-06-09T09:57:25.936Z,9.70
2018-06-09T09:58:25.965Z,9.40
2018-06-09T09:59:26.124Z,9.60
2018-06-09T10:00:26.352Z,8.90
2018-06-09T10:01:26.307Z,8.80
2018-06-09T10:02:26.533Z,8.70
2018-06-09T10:03:26.592Z,8.40
2018-06-09T10:04:26.674Z,9.50
2018-06-09T10:05:26.841Z,8.80
2018-06-09T10:06:26.828Z,9.90
2018-06-09T10:07:26.958Z,9.00
2018-06-09T10:08:27.105Z,9.80
2018-06-09T10:09:27.236Z,9.20
2018-06-09T10:10:27.519Z,9.00
2018-06-09T10:11:27.540Z,9.10
2018-06-09T10:12:27.686Z,8.60
2018-06-09T10:13:27.799Z,10.60
2018-06-09T10:14:28.030Z,8.90
2018-06-09T10:15:28.019Z,9.00
2018-06-09T10:16:28.446Z,10.60
2018-06-09T10:17:28.259Z,9.00
2018-06-09T10:18:28.376Z,8.70
2018-06-09T10:19:28.492Z,8.70
2018-06-09T10:20:28.714Z,8.70
2018-06-09T10:21:28.699Z,9.10
2018-06-09T10:22:28.819Z,9.10
2018-06-09T10:23:28.920Z,8.50
2018-06-09T10:24:29.047Z,9.70
2018-06-09T10:25:29.159Z,8.80
2018-06-09T10:26:29.290Z,9.00
2018-06-09T10:27:29.395Z,9.40
2018-06-09T10:28:29.507Z,8.70
2018-06-09T10:29:29.624Z,7.50
2018-06-09T10:30:29.752Z,10.60
2018-06-09T10:31:29.863Z,8.60
2018-06-09T10:32:29.973Z,7.90
2018-06-09T10:33:30.090Z,7.60
2018-06-09T10:34:30.199Z,8.10
2018-06-09T10:35:30.298Z,8.60
2018-06-09T10:36:30.423Z,8.20
2018-06-09T10:37:30.538Z,8.40
2018-06-09T10:38:30.652Z,8.10
2018-06-09T10:39:30.764Z,8.50
2018-06-09T10:40:30.880Z,8.60
2018-06-09T10:41:30.989Z,8.30
2018-06-09T10:42:31.101Z,8.50
2018-06-09T10:43:31.209Z,8.80
2018-06-09T10:44:31.322Z,8.60
2018-06-09T10:45:31.437Z,7.70
2018-06-09T10:46:31.554Z,8.50
2018-06-09T10:47:31.664Z,8.70
2018-06-09T10:48:31.775Z,8.20
2018-06-09T10:49:31.890Z,8.10
2018-06-09T10:50:32.003Z,7.50
2018-06-09T10:51:32.103Z,8.40
2018-06-09T10:52:32.212Z,8.10
2018-06-09T10:53:32.320Z,8.10
2018-06-09T10:54:32.436Z,8.00
2018-06-09T10:55:32.555Z,7.70
2018-06-09T10:56:32.657Z,7.70
2018-06-09T10:57:32.784Z,8.60
2018-06-09T10:58:32.876Z,8.10
2018-06-09T10:59:32.989Z,8.70
2018-06-09T11:00:33.100Z,8.30
2018-06-09T11:01:33.210Z,7.60
2018-06-09T11:02:33.324Z,7.10
2018-06-09T11:03:33.435Z,8.80
2018-06-09T11:04:33.543Z,7.80
2018-06-09T11:05:33.655Z,8.50
2018-06-09T11:06:33.760Z,7.50
2018-06-09T11:07:33.867Z,8.20
2018-06-09T11:08:33.980Z,7.50
2018-06-09T11:09:34.089Z,7.70
2018-06-09T11:10:34.203Z,7.20
2018-06-09T11:11:34.313Z,6.20
2018-06-09T11:12:34.478Z,6.80
2018-06-09T11:13:34.581Z,7.10
2018-06-09T11:14:34.680Z,7.90
2018-06-09T11:15:34.793Z,7.20
2018-06-09T11:16:34.901Z,6.70
2018-06-09T11:17:35.012Z,6.90
2018-06-09T11:18:35.121Z,7.00
2018-06-09T11:19:35.236Z,7.20
2018-06-09T11:20:35.348Z,7.70
2018-06-09T11:21:35.458Z,7.00
2018-06-09T11:22:35.572Z,6.90
2018-06-09T11:23:35.720Z,7.30
2018-06-09T11:24:35.833Z,7.70
2018-06-09T11:25:35.944Z,7.20
2018-06-09T11:26:36.057Z,7.30
2018-06-09T11:27:36.169Z,8.10
2018-06-09T11:28:36.276Z,7.20
2018-06-09T11:29:36.390Z,7.20
2018-06-09T11:30:36.500Z,7.30
2018-06-09T11:31:36.610Z,7.10
2018-06-09T11:32:36.721Z,7.30
2018-06-09T11:33:36.834Z,7.50
2018-06-09T11:34:36.947Z,7.50
2018-06-09T11:35:37.058Z,8.60
2018-06-09T11:36:37.170Z,7.10
2018-06-09T11:37:37.284Z,7.80
2018-06-09T11:38:37.397Z,7.40
2018-06-09T11:39:37.507Z,6.70
2018-06-09T11:40:37.620Z,7.70
2018-06-09T11:41:37.733Z,7.40
2018-06-09T11:42:37.842Z,7.80
2018-06-09T11:43:37.958Z,7.00
2018-06-09T11:44:38.065Z,6.80
2018-06-09T11:45:38.200Z,7.90
2018-06-09T11:46:38.312Z,8.00
2018-06-09T11:47:38.423Z,8.60
2018-06-09T11:48:38.537Z,8.50
2018-06-09T11:49:38.645Z,8.00
2018-06-09T11:50:38.758Z,8.20
2018-06-09T11:51:38.871Z,7.60
2018-06-09T11:52:38.982Z,7.90
2018-06-09T11:53:39.114Z,8.00
2018-06-09T11:54:39.226Z,8.90
2018-06-09T11:55:39.336Z,7.70
2018-06-09T11:56:39.453Z,7.20
2018-06-09T11:57:39.549Z,6.90
2018-06-09T11:58:39.710Z,7.40
2018-06-09T11:59:39.772Z,9.80
2018-06-09T12:00:39.886Z,7.10
2018-06-09T12:01:40.021Z,7.40
2018-06-09T12:02:40.112Z,7.60
2018-06-09T12:03:40.223Z,7.80
2018-06-09T12:04:40.338Z,8.10
2018-06-09T12:05:40.488Z,8.20
2018-06-09T12:06:40.564Z,9.00
2018-06-09T12:07:40.678Z,8.10
2018-06-09T12:08:40.788Z,7.90
2018-06-09T12:09:40.901Z,7.70
2018-06-09T12:10:41.013Z,7.90
2018-06-09T12:11:41.124Z,7.60
2018-06-09T12:12:41.239Z,7.80
2018-06-09T12:13:41.356Z,7.10
2018-06-09T12:14:41.463Z,8.00
2018-06-09T12:15:41.574Z,8.20
2018-06-09T12:16:41.688Z,7.40
2018-06-09T12:17:42.726Z,7.80
2018-06-09T12:18:41.894Z,7.80
2018-06-09T12:19:42.021Z,7.20
2018-06-09T12:20:42.401Z,8.90
2018-06-09T12:21:42.333Z,7.70
2018-06-09T12:22:42.508Z,7.40
2018-06-09T12:23:42.718Z,8.30
2018-06-09T12:24:42.822Z,7.10
2018-06-09T12:25:43.255Z,7.70
2018-06-09T12:26:43.207Z,7.70
2018-06-09T12:27:43.480Z,7.40
2018-06-09T12:28:43.413Z,7.80
2018-06-09T12:29:43.404Z,7.30
2018-06-09T12:30:43.787Z,7.40
2018-06-09T12:31:43.693Z,7.70
2018-06-09T12:32:43.837Z,7.70
2018-06-09T12:33:44.249Z,7.80
2018-06-09T12:34:44.220Z,8.20
2018-06-09T12:35:44.228Z,7.70
2018-06-09T12:36:44.788Z,7.90
2018-06-09T12:37:44.482Z,7.70
2018-06-09T12:38:44.722Z,7.90
2018-06-09T12:39:45.143Z,8.00
2018-06-09T12:40:44.898Z,8.60
2018-06-09T12:41:45.036Z,8.00
2018-06-09T12:42:45.286Z,7.70
2018-06-09T12:43:45.419Z,8.70
2018-06-09T12:44:45.189Z,7.70
2018-06-09T12:45:45.364Z,8.30
2018-06-09T12:46:45.368Z,7.50
2018-06-09T12:47:46.025Z,8.00
2018-06-09T12:48:45.628Z,7.70
2018-06-09T12:49:45.746Z,8.30
2018-06-09T12:50:45.901Z,9.70
2018-06-09T12:51:46.267Z,7.50
2018-06-09T12:52:46.319Z,8.10
2018-06-09T12:53:46.281Z,7.60
2018-06-09T12:54:46.267Z,7.90
2018-06-09T12:55:46.375Z,7.60
2018-06-09T12:56:47.237Z,7.70
2018-06-09T12:57:46.826Z,8.00
2018-06-09T12:58:46.917Z,7.80
2018-06-09T12:59:46.849Z,7.10
2018-06-09T13:00:47.420Z,7.10
2018-06-09T13:01:47.264Z,7.50
2018-06-09T13:02:47.202Z,7.40
2018-06-09T13:03:47.326Z,7.30